Time;durP1;ratioP1;P1;durP2;ratioP2;P2;SDS_P1;SDS_P2;PMS_P1;PMS_P2;Temp;Humidity;BMP_temperature;BMP_pressure;BME280_temperature;BME280_humidity;BME280_pressure;Samples;Min_cycle;Max_cycle;Signal;HPM_P1;HPM_P2
2021/11/09 00:01:04;;;;;;;0.73;0.47;;;;;;;5.08;76.52;98218.78;4916813;29;20039;-42
2021/11/09 00:03:33;;;;;;;0.40;0.40;;;;;;;5.11;76.90;98216.97;4940260;29;20046;-42
2021/11/09 00:06:09;;;;;;;1.00;0.75;;;;;;;5.21;76.78;98220.03;4934351;29;20074;-42
2021/11/09 00:08:48;;;;;;;1.38;0.85;;;;;;;5.13;77.75;98217.72;4922671;29;20034;-41
2021/11/09 00:11:15;;;;;;;0.57;0.50;;;;;;;5.08;77.82;98223.94;4906579;29;20063;-41
2021/11/09 00:13:43;;;;;;;0.77;0.60;;;;;;;5.01;78.14;98217.34;4905975;29;20477;-41
2021/11/09 00:16:09;;;;;;;1.75;0.55;;;;;;;5.08;78.08;98244.53;4919487;29;20484;-42
2021/11/09 00:18:36;;;;;;;1.58;0.60;;;;;;;5.08;79.15;98236.81;4915718;29;20067;-39
2021/11/09 00:21:02;;;;;;;1.05;0.60;;;;;;;5.21;78.50;98239.81;4920185;29;20098;-42
2021/11/09 00:23:28;;;;;;;0.60;0.40;;;;;;;5.04;79.63;98235.25;4928836;29;20110;-40
2021/11/09 00:25:54;;;;;;;1.27;0.60;;;;;;;5.10;80.07;98242.78;4928825;29;20504;-41
2021/11/09 00:28:20;;;;;;;2.55;0.88;;;;;;;5.07;80.95;98243.75;4920704;29;20092;-42
2021/11/09 00:30:46;;;;;;;1.23;0.40;;;;;;;4.82;81.87;98237.72;4911045;29;20510;-41
2021/11/09 00:33:12;;;;;;;0.60;0.52;;;;;;;4.74;83.10;98252.63;4920236;29;20118;-41
2021/11/09 00:35:38;;;;;;;0.82;0.70;;;;;;;4.67;84.99;98251.13;4928175;29;20048;-41
2021/11/09 00:38:06;;;;;;;0.65;0.55;;;;;;;4.61;86.02;98251.31;4944614;29;20122;-41
2021/11/09 00:40:34;;;;;;;2.00;0.70;;;;;;;4.52;87.76;98249.91;4916769;29;20487;-41
2021/11/09 00:43:01;;;;;;;1.75;0.60;;;;;;;4.39;88.73;98255.53;4931917;29;20057;-41
2021/11/09 00:45:27;;;;;;;0.88;0.57;;;;;;;4.30;90.61;98259.22;4905169;29;20052;-41
2021/11/09 00:47:53;;;;;;;1.95;0.90;;;;;;;4.24;92.80;98257.66;4932455;29;20095;-43
2021/11/09 00:50:22;;;;;;;2.65;1.10;;;;;;;4.26;94.18;98262.78;4916501;29;20051;-40
2021/11/09 00:52:48;;;;;;;3.10;1.13;;;;;;;4.26;95.09;98261.06;4929661;29;20071;-41
2021/11/09 00:55:14;;;;;;;1.60;0.90;;;;;;;4.26;95.98;98275.63;4918494;29;20051;-42
2021/11/09 00:57:42;;;;;;;1.80;0.95;;;;;;;4.19;97.14;98280.13;4939670;29;20428;-41
2021/11/09 01:00:10;;;;;;;1.95;1.10;;;;;;;4.22;97.56;98274.06;4939331;29;20040;-41
2021/11/09 01:02:36;;;;;;;1.52;0.98;;;;;;;4.18;98.10;98278.47;4918826;29;20051;-42
2021/11/09 01:05:03;;;;;;;1.23;0.93;;;;;;;4.16;98.49;98272.53;4935627;29;20099;-43
2021/11/09 01:07:29;;;;;;;1.45;1.00;;;;;;;4.26;98.23;98281.63;4931932;29;20106;-41
2021/11/09 01:09:54;;;;;;;1.73;0.93;;;;;;;4.20;99.02;98275.81;4940033;29;20473;-42
2021/11/09 01:12:20;;;;;;;0.90;0.80;;;;;;;4.31;99.22;98302.06;4942557;29;20049;-42
2021/11/09 01:14:46;;;;;;;0.85;0.70;;;;;;;4.35;98.88;98306.22;4899273;29;20534;-42
2021/11/09 01:17:12;;;;;;;2.25;1.00;;;;;;;4.39;99.89;98310.41;4934987;29;20090;-41
2021/11/09 01:19:38;;;;;;;1.27;0.95;;;;;;;4.48;99.55;98319.53;4942081;29;20039;-41
2021/11/09 01:22:06;;;;;;;0.80;0.70;;;;;;;4.50;100.00;98322.91;4935293;29;20040;-41
2021/11/09 01:24:32;;;;;;;1.00;0.90;;;;;;;4.54;100.00;98333.06;4936048;29;20094;-41
2021/11/09 01:26:58;;;;;;;1.13;0.73;;;;;;;4.55;100.00;98339.06;4930059;29;20126;-40
2021/11/09 01:29:24;;;;;;;0.88;0.60;;;;;;;4.52;99.69;98337.41;4931148;29;20511;-40
2021/11/09 01:31:53;;;;;;;1.45;0.80;;;;;;;4.53;99.15;98351.13;4931680;29;20071;-41
2021/11/09 01:34:19;;;;;;;0.73;0.50;;;;;;;4.45;98.81;98358.25;4934791;29;20039;-43
2021/11/09 01:36:44;;;;;;;0.57;0.52;;;;;;;4.37;98.17;98368.75;4933985;29;20493;-42
2021/11/09 01:39:11;;;;;;;0.95;0.60;;;;;;;4.23;98.31;98364.03;4934220;29;20043;-40
2021/11/09 01:41:37;;;;;;;1.13;0.70;;;;;;;4.28;97.79;98381.06;4943997;29;20093;-42
2021/11/09 01:44:04;;;;;;;2.15;0.50;;;;;;;4.24;97.94;98385.44;4932565;29;20139;-42
2021/11/09 01:46:31;;;;;;;0.95;0.50;;;;;;;4.20;96.98;98389.00;4938595;29;20043;-40
2021/11/09 01:48:57;;;;;;;2.13;0.70;;;;;;;4.18;97.34;98389.06;4932845;29;22222;-42
2021/11/09 01:51:23;;;;;;;1.38;0.70;;;;;;;4.18;96.92;98398.50;4911061;29;20074;-40
2021/11/09 01:53:52;;;;;;;2.17;0.70;;;;;;;4.17;96.66;98397.66;4940411;29;20512;-43
2021/11/09 01:56:22;;;;;;;2.28;0.80;;;;;;;4.19;96.82;98406.16;4916575;29;20046;-41
2021/11/09 01:58:49;;;;;;;3.15;1.40;;;;;;;4.17;96.51;98407.94;4901740;29;20040;-40
2021/11/09 02:01:17;;;;;;;2.45;0.60;;;;;;;4.15;96.73;98414.84;4940767;29;20039;-41
2021/11/09 02:03:46;;;;;;;1.00;0.43;;;;;;;4.12;96.29;98414.94;4915654;29;20036;-42
2021/11/09 02:06:13;;;;;;;0.47;0.30;;;;;;;4.11;95.78;98418.41;4916381;29;20058;-42
2021/11/09 02:08:40;;;;;;;0.20;0.20;;;;;;;4.13;95.52;98426.94;4931491;29;20062;-43
2021/11/09 02:11:06;;;;;;;0.28;0.22;;;;;;;4.14;94.86;98430.31;4914779;29;20040;-42
2021/11/09 02:13:33;;;;;;;0.98;0.20;;;;;;;4.14;94.65;98428.59;4921313;29;20123;-41
2021/11/09 02:15:59;;;;;;;0.82;0.25;;;;;;;4.17;93.70;98446.53;4936376;29;20046;-42
2021/11/09 02:18:26;;;;;;;0.57;0.20;;;;;;;4.18;93.72;98460.22;4932424;29;20043;-41
2021/11/09 02:20:59;;;;;;;0.70;0.30;;;;;;;4.18;93.33;98453.34;4933761;29;20047;-42
2021/11/09 02:23:30;;;;;;;0.20;0.20;;;;;;;4.16;92.48;98464.56;4916518;29;20074;-42
2021/11/09 02:25:57;;;;;;;0.50;0.40;;;;;;;4.18;92.12;98473.94;4928837;29;20043;-41
2021/11/09 02:28:23;;;;;;;0.35;0.20;;;;;;;4.15;92.22;98474.00;4932783;29;20046;-42
2021/11/09 02:30:49;;;;;;;0.25;0.20;;;;;;;4.05;91.86;98461.44;4907439;29;20059;-42
2021/11/09 02:33:15;;;;;;;0.25;0.20;;;;;;;4.18;91.48;98493.66;4916799;29;20055;-42
2021/11/09 02:35:41;;;;;;;0.45;0.30;;;;;;;4.19;91.13;98495.31;4904237;29;20526;-41
2021/11/09 02:38:08;;;;;;;0.60;0.40;;;;;;;4.16;90.77;98492.84;4926343;29;20463;-44
2021/11/09 02:40:34;;;;;;;0.30;0.28;;;;;;;4.18;90.60;98504.81;4919772;29;20099;-43
2021/11/09 02:43:05;;;;;;;0.10;0.10;;;;;;;4.21;91.26;98504.69;4922532;29;20043;-43
2021/11/09 02:52:05;;;;;;;0.45;0.20;;;;;;;4.22;90.72;98539.84;4936085;29;20531;-45
2021/11/09 02:54:41;;;;;;;0.20;0.20;;;;;;;4.21;90.03;98533.00;4919221;29;20090;-41
2021/11/09 02:57:18;;;;;;;0.80;0.20;;;;;;;4.21;90.20;98538.16;4931980;29;20075;-43
2021/11/09 02:59:59;;;;;;;1.77;0.28;;;;;;;4.26;90.01;98551.72;4912172;29;20059;-43
2021/11/09 03:05:02;;;;;;;0.70;0.40;;;;;;;4.29;90.28;98560.25;4933649;29;20036;-41
2021/11/09 03:07:37;;;;;;;0.63;0.40;;;;;;;4.17;90.19;98548.56;4932472;29;20043;-41
2021/11/09 03:10:09;;;;;;;0.40;0.30;;;;;;;4.28;90.33;98574.00;4932277;29;20035;-41
2021/11/09 03:12:37;;;;;;;1.02;0.35;;;;;;;4.29;89.95;98576.53;4933599;29;20048;-41
2021/11/09 03:15:07;;;;;;;2.40;0.60;;;;;;;4.26;89.64;98577.44;4934220;29;20245;-42
2021/11/09 03:17:42;;;;;;;;;;;;;;;4.28;89.39;98586.84;4942569;29;20063;-41
2021/11/09 03:20:13;;;;;;;1.90;0.40;;;;;;;4.26;89.27;98592.03;4912483;29;19922;-42
2021/11/09 03:47:20;;;;;;;0.47;0.30;;;;;;;4.20;86.97;98677.91;4939166;29;20071;-41
2021/11/09 03:49:47;;;;;;;0.60;0.40;;;;;;;4.21;87.28;98678.78;4914915;29;20035;-42
2021/11/09 03:52:20;;;;;;;1.08;0.40;;;;;;;4.16;86.62;98683.19;4915554;29;20066;-43
2021/11/09 03:54:49;;;;;;;0.13;0.13;;;;;;;4.16;86.33;98709.75;4930996;29;20217;-42
2021/11/09 03:59:53;;;;;;;;;;;;;;;4.07;85.56;98704.00;4932834;29;20043;-42
2021/11/09 04:03:12;;;;;;;0.43;0.43;;;;;;;4.06;85.57;98710.84;4932937;29;19969;-41
2021/11/09 04:05:08;;;;;;;1.40;0.40;;;;;;;4.05;85.81;98716.03;4943200;29;20110;-42
2021/11/09 04:26:13;;;;;;;1.27;0.43;;;;;;;3.92;82.31;98790.06;4929004;29;20511;-45
2021/11/09 04:28:49;;;;;;;0.47;0.40;;;;;;;3.91;81.98;98787.50;4916461;29;20592;-42
2021/11/09 04:38:29;;;;;;;1.95;0.90;;;;;;;3.89;81.94;98809.81;4940389;29;20051;-43
2021/11/09 04:42:59;;;;;;;3.40;1.10;;;;;;;3.90;82.37;98821.81;4938584;29;20050;-42
2021/11/09 05:09:10;;;;;;;3.83;2.00;;;;;;;3.79;77.06;98902.56;4952757;29;20043;-47
2021/11/09 05:11:37;;;;;;;5.65;2.35;;;;;;;3.80;77.39;98908.56;4931038;29;20066;-49
2021/11/09 05:14:07;;;;;;;7.05;2.35;;;;;;;3.71;77.15;98895.91;4934171;29;20047;-51
2021/11/09 05:16:34;;;;;;;5.25;2.40;;;;;;;3.76;77.28;98922.34;4925032;29;20080;-47
2021/11/09 05:19:00;;;;;;;5.75;2.53;;;;;;;3.63;77.14;98919.16;4930033;29;20579;-42
2021/11/09 05:21:26;;;;;;;5.53;2.70;;;;;;;3.64;77.03;98917.44;4935062;29;20451;-40
2021/11/09 05:23:52;;;;;;;5.50;3.40;;;;;;;3.72;77.01;98943.81;4942679;29;20047;-43
2021/11/09 05:26:18;;;;;;;6.15;2.92;;;;;;;3.64;76.71;98931.13;4935830;29;20040;-41
2021/11/09 05:28:45;;;;;;;4.63;2.63;;;;;;;3.72;76.28;98959.25;4933978;29;20047;-40
2021/11/09 05:31:14;;;;;;;4.22;2.90;;;;;;;3.73;76.30;98964.38;4923973;29;20130;-42
2021/11/09 05:33:39;;;;;;;3.95;2.40;;;;;;;3.73;76.06;98974.66;4916612;29;20047;-42
2021/11/09 05:36:07;;;;;;;5.47;3.45;;;;;;;3.76;76.10;98974.63;4922625;29;20052;-41
2021/11/09 05:38:49;;;;;;;10.20;2.70;;;;;;;3.79;76.04;98989.97;4908351;29;20584;-42
2021/11/09 05:41:17;;;;;;;5.85;2.60;;;;;;;3.72;75.88;98979.81;4925815;29;20039;-40
2021/11/09 05:43:43;;;;;;;5.47;2.80;;;;;;;3.71;75.26;99002.13;4911087;29;20039;-42
2021/11/09 05:46:09;;;;;;;5.93;3.20;;;;;;;3.66;76.06;99013.38;4921336;29;20043;-42
2021/11/09 05:48:36;;;;;;;6.03;3.20;;;;;;;3.61;76.17;99012.59;4931797;29;20048;-40
2021/11/09 05:51:07;;;;;;;6.13;3.15;;;;;;;3.55;76.10;99025.53;4924283;29;20077;-43
2021/11/09 05:53:35;;;;;;;4.82;2.90;;;;;;;3.48;76.27;99031.66;4917346;29;20087;-40
2021/11/09 05:56:05;;;;;;;6.13;2.85;;;;;;;3.39;75.36;99033.50;4913716;29;20035;-43
2021/11/09 05:58:30;;;;;;;4.35;3.17;;;;;;;3.40;74.88;99047.19;4914583;29;20173;-44
2021/11/09 06:00:56;;;;;;;4.47;2.67;;;;;;;3.40;74.50;99042.88;4934307;29;20188;-42
2021/11/09 06:03:23;;;;;;;3.80;2.30;;;;;;;3.44;74.23;99060.84;4929673;29;20036;-42
2021/11/09 06:05:53;;;;;;;3.85;2.70;;;;;;;3.47;73.53;99069.34;4924816;29;20047;-41
2021/11/09 06:08:19;;;;;;;4.72;2.58;;;;;;;3.47;73.69;99081.34;4914209;29;20051;-42
2021/11/09 06:10:46;;;;;;;3.92;2.10;;;;;;;3.46;73.33;99088.19;4917240;29;20523;-42
2021/11/09 06:13:12;;;;;;;4.18;2.08;;;;;;;3.46;72.93;99089.91;4949994;29;20050;-42
2021/11/09 06:15:38;;;;;;;4.30;2.08;;;;;;;3.49;72.69;99097.59;4953319;29;20042;-42
2021/11/09 06:18:04;;;;;;;3.00;2.17;;;;;;;3.38;71.99;99090.91;4937108;29;20039;-44
2021/11/09 06:20:30;;;;;;;4.97;2.00;;;;;;;3.37;71.32;99114.88;4933800;29;20043;-47
2021/11/09 06:22:56;;;;;;;5.40;2.10;;;;;;;3.32;70.90;99126.94;4933525;29;20047;-45
2021/11/09 06:25:23;;;;;;;3.42;2.13;;;;;;;3.31;71.06;99122.66;4934126;29;20502;-43
2021/11/09 06:27:50;;;;;;;4.57;2.15;;;;;;;3.27;70.21;99135.59;4945869;29;20053;-44
2021/11/09 06:30:19;;;;;;;2.97;1.83;;;;;;;3.22;69.85;99143.34;4934093;29;20039;-46
2021/11/09 06:32:46;;;;;;;3.72;1.80;;;;;;;3.20;69.42;99162.22;4926798;29;20062;-43
2021/11/09 06:35:12;;;;;;;4.57;2.05;;;;;;;3.12;69.06;99162.31;4915673;29;20507;-42
2021/11/09 06:37:38;;;;;;;4.30;2.10;;;;;;;3.09;68.89;99164.09;4927052;29;20039;-42
2021/11/09 06:40:05;;;;;;;3.67;1.80;;;;;;;3.03;69.02;99159.88;4945313;29;20062;-43
2021/11/09 06:42:32;;;;;;;3.50;1.70;;;;;;;3.13;68.70;99174.31;4935706;29;20047;-41
2021/11/09 06:44:58;;;;;;;4.05;1.70;;;;;;;3.02;68.78;99159.91;4934226;29;20047;-42
2021/11/09 06:47:23;;;;;;;3.60;1.80;;;;;;;3.09;68.24;99188.03;4921448;29;20050;-43
2021/11/09 06:49:49;;;;;;;4.78;1.60;;;;;;;3.06;67.99;99193.22;4933917;28;20476;-42
2021/11/09 06:52:15;;;;;;;3.97;1.50;;;;;;;3.06;67.94;99198.34;4931338;29;20593;-41
2021/11/09 06:54:42;;;;;;;4.22;1.80;;;;;;;3.02;68.27;99211.25;4930460;29;20840;-41
2021/11/09 06:57:09;;;;;;;2.35;1.48;;;;;;;2.97;68.33;99209.59;4913964;29;20067;-41
2021/11/09 06:59:34;;;;;;;2.35;1.27;;;;;;;2.93;68.65;99217.34;4934291;29;20090;-41
2021/11/09 07:02:01;;;;;;;2.80;1.45;;;;;;;2.91;68.94;99232.75;4932145;29;20111;-41
2021/11/09 07:04:29;;;;;;;2.10;1.40;;;;;;;2.91;69.09;99237.91;4931458;29;21356;-43
2021/11/09 07:06:55;;;;;;;3.63;1.30;;;;;;;2.84;68.76;99236.25;4932567;29;20051;-42
2021/11/09 07:09:22;;;;;;;3.53;1.48;;;;;;;2.82;68.35;99252.53;4931344;29;20083;-42
2021/11/09 07:11:48;;;;;;;1.88;1.00;;;;;;;2.87;67.98;99253.34;4915066;29;20071;-43
2021/11/09 07:14:15;;;;;;;4.53;1.40;;;;;;;2.91;67.82;99261.00;4939079;29;20055;-41
2021/11/09 07:16:43;;;;;;;3.38;1.40;;;;;;;2.97;67.65;99270.34;4931752;29;20531;-41
2021/11/09 07:19:10;;;;;;;3.67;1.00;;;;;;;2.99;67.62;99274.59;4903903;29;20044;-45
2021/11/09 07:21:36;;;;;;;3.22;1.52;;;;;;;2.98;66.93;99277.19;4940386;29;20702;-42
2021/11/09 07:24:02;;;;;;;3.03;1.10;;;;;;;2.86;66.48;99285.88;4942737;29;20046;-41
2021/11/09 07:26:28;;;;;;;1.52;0.90;;;;;;;2.96;66.48;99282.34;4902726;29;20133;-42
2021/11/09 07:28:55;;;;;;;4.82;1.00;;;;;;;3.01;66.14;99318.25;4931976;29;20647;-40
2021/11/09 07:31:21;;;;;;;1.40;1.02;;;;;;;2.92;65.83;99303.78;4933790;29;20079;-41
2021/11/09 07:33:49;;;;;;;2.28;1.02;;;;;;;3.02;65.81;99321.66;4924147;29;20075;-43
2021/11/09 07:36:15;;;;;;;3.92;1.13;;;;;;;2.97;65.45;99332.84;4919506;29;20075;-43
2021/11/09 07:38:41;;;;;;;2.03;0.80;;;;;;;2.93;65.47;99353.41;4937148;29;20110;-41
2021/11/09 07:41:07;;;;;;;1.98;1.00;;;;;;;2.89;65.34;99352.56;4937379;29;20515;-41
2021/11/09 07:43:33;;;;;;;2.22;1.00;;;;;;;2.87;64.54;99361.16;4932536;29;20043;-41
2021/11/09 07:45:59;;;;;;;1.33;0.82;;;;;;;2.68;63.98;99344.19;4927056;29;20105;-41
2021/11/09 07:48:26;;;;;;;3.20;1.52;;;;;;;2.82;63.40;99368.91;4938111;29;20138;-41
2021/11/09 07:50:51;;;;;;;5.07;1.73;;;;;;;2.87;63.62;99380.00;4932186;29;20131;-41
2021/11/09 07:53:18;;;;;;;1.83;1.13;;;;;;;2.92;63.13;99383.38;4939746;29;20535;-40
2021/11/09 07:55:54;;;;;;;3.30;1.40;;;;;;;2.87;63.05;99368.88;4915344;29;20051;-42
2021/11/09 07:58:31;;;;;;;2.67;1.17;;;;;;;3.04;62.96;99396.94;4934562;29;20043;-40
2021/11/09 08:01:07;;;;;;;4.28;1.85;;;;;;;3.06;62.71;99396.09;4941886;29;20059;-41
2021/11/09 08:03:40;;;;;;;2.67;0.80;;;;;;;3.05;62.78;99406.34;4931712;29;20047;-40
2021/11/09 08:06:12;;;;;;;4.13;1.55;;;;;;;2.98;62.74;99414.09;4935911;29;20436;-41
2021/11/09 08:11:23;;;;;;;3.70;0.80;;;;;;;2.83;62.72;99424.50;4925737;29;20050;-41
2021/11/09 08:13:49;;;;;;;3.78;1.00;;;;;;;2.83;62.65;99429.63;4922112;29;20039;-41
2021/11/09 08:16:16;;;;;;;3.78;1.33;;;;;;;2.92;62.42;99436.44;4948976;29;20582;-42
2021/11/09 08:18:44;;;;;;;3.72;0.98;;;;;;;2.91;62.31;99445.00;4942040;29;20043;-41
2021/11/09 08:21:11;;;;;;;0.95;0.60;;;;;;;2.89;62.12;99447.56;4943214;29;20066;-41
2021/11/09 08:23:37;;;;;;;3.20;0.98;;;;;;;3.02;61.75;99465.47;4937463;29;20090;-41
2021/11/09 08:26:03;;;;;;;1.92;0.90;;;;;;;3.02;61.65;99468.03;4936166;29;20522;-42
2021/11/09 08:28:29;;;;;;;3.55;1.10;;;;;;;3.08;61.75;99465.41;4946927;29;20519;-41
2021/11/09 08:31:01;;;;;;;6.35;0.98;;;;;;;3.17;61.44;99481.59;4932098;29;20044;-40
2021/11/09 08:33:29;;;;;;;5.78;1.27;;;;;;;3.25;61.36;99484.94;4932121;29;20118;-40
2021/11/09 08:35:56;;;;;;;1.83;1.17;;;;;;;3.25;60.85;99476.38;4899241;29;20500;-41
2021/11/09 08:38:22;;;;;;;3.45;0.90;;;;;;;3.20;60.93;99496.13;4944404;29;20483;-41
2021/11/09 08:40:50;;;;;;;3.47;0.90;;;;;;;3.12;60.22;99503.03;4932050;29;20039;-41
2021/11/09 08:43:19;;;;;;;5.82;1.10;;;;;;;3.10;60.00;99507.31;4932242;29;20147;-42
2021/11/09 08:45:55;;;;;;;2.25;0.63;;;;;;;3.05;59.65;99512.50;4929829;29;20110;-41
2021/11/09 08:48:23;;;;;;;2.38;0.60;;;;;;;3.12;59.44;99510.75;4940462;29;20498;-42
2021/11/09 08:50:51;;;;;;;2.35;0.82;;;;;;;3.16;58.67;99525.28;4934341;29;20439;-41
2021/11/09 08:53:41;;;;;;;2.10;0.80;;;;;;;4.26;56.71;99526.81;4937778;29;20066;-41
2021/11/09 09:01:42;;;;;;;2.58;0.73;;;;;;;4.45;55.92;99550.59;4913133;29;20048;-42
2021/11/09 09:04:13;;;;;;;2.70;0.90;;;;;;;4.26;56.22;99546.53;4912654;29;20040;-42
2021/11/09 09:06:40;;;;;;;2.15;0.90;;;;;;;4.11;55.82;99544.13;4912855;29;20051;-41
2021/11/09 09:09:07;;;;;;;1.65;0.60;;;;;;;4.76;53.79;99568.25;4912813;29;20056;-41
2021/11/09 09:11:34;;;;;;;5.15;0.77;;;;;;;5.80;51.75;99569.28;4913260;29;20520;-45
2021/11/09 09:14:00;;;;;;;2.03;0.80;;;;;;;6.68;49.89;99567.63;4913784;29;20056;-42
2021/11/09 09:16:27;;;;;;;3.45;1.27;;;;;;;7.83;47.79;99539.97;4923059;29;20043;-43
2021/11/09 09:18:54;;;;;;;5.47;2.05;;;;;;;8.42;46.15;99574.69;4925204;29;20476;-43
2021/11/09 09:21:30;;;;;;;1.33;0.80;;;;;;;8.56;46.40;99569.97;4916187;29;20210;-41
2021/11/09 09:24:01;;;;;;;3.10;1.10;;;;;;;8.93;45.35;99569.78;4916057;29;20044;-42
2021/11/09 09:27:15;;;;;;;2.83;1.13;;;;;;;9.79;42.80;99564.44;4919964;29;20070;-42
2021/11/09 09:56:52;;;;;;;3.40;0.90;;;;;;;5.81;48.48;99622.53;4952559;29;20050;-42
2021/11/09 09:59:23;;;;;;;3.88;0.73;;;;;;;5.63;48.47;99622.00;4927753;29;20042;-42
2021/11/09 10:02:22;;;;;;;2.17;0.68;;;;;;;5.47;49.00;99629.97;4944269;29;20131;-42
2021/11/09 10:04:52;;;;;;;2.38;0.75;;;;;;;5.49;49.34;99641.13;4938311;29;20059;-41
2021/11/09 10:07:38;;;;;;;3.75;0.73;;;;;;;5.36;48.34;99649.88;4952431;29;20070;-42
2021/11/09 10:10:29;;;;;;;2.88;0.80;;;;;;;5.17;48.29;99657.88;4901333;29;20484;-41
2021/11/09 10:13:01;;;;;;;2.13;0.70;;;;;;;5.10;48.87;99660.53;4925608;29;20528;-43
2021/11/09 10:15:29;;;;;;;1.85;0.60;;;;;;;5.08;48.68;99672.56;4928516;29;20056;-43
2021/11/09 10:18:02;;;;;;;3.13;1.00;;;;;;;5.15;49.06;99663.06;4917538;29;20519;-42
2021/11/09 10:20:40;;;;;;;1.52;0.80;;;;;;;5.31;48.84;99674.00;4937736;29;20044;-42
2021/11/09 10:23:11;;;;;;;3.50;1.25;;;;;;;5.43;48.28;99689.31;4934706;29;20043;-43
2021/11/09 10:25:37;;;;;;;3.90;1.63;;;;;;;5.44;48.92;99702.16;4952132;28;20468;-41
2021/11/09 10:28:06;;;;;;;6.28;1.00;;;;;;;6.34;47.38;99704.28;4936005;29;20459;-41
2021/11/09 10:30:39;;;;;;;2.83;1.40;;;;;;;6.74;46.26;99703.59;4925095;29;20427;-42
2021/11/09 10:33:05;;;;;;;2.10;1.02;;;;;;;7.48;44.68;99703.81;4949928;29;20043;-43
2021/11/09 10:35:31;;;;;;;2.40;1.00;;;;;;;8.23;42.75;99693.41;4932537;29;20070;-42
2021/11/09 10:38:05;;;;;;;2.92;0.60;;;;;;;8.58;42.81;99713.31;4933404;29;20043;-42
2021/11/09 10:40:59;;;;;;;3.38;0.90;;;;;;;8.87;42.15;99718.56;4941457;29;20051;-41
2021/11/09 10:43:26;;;;;;;4.00;0.90;;;;;;;8.36;42.87;99732.88;4929596;29;20055;-42
2021/11/09 10:45:52;;;;;;;2.28;0.70;;;;;;;8.75;41.91;99725.81;4931380;29;20071;-40
2021/11/09 10:48:20;;;;;;;4.60;1.30;;;;;;;8.73;41.69;99735.38;4935407;29;20185;-42
2021/11/09 10:50:50;;;;;;;2.28;0.88;;;;;;;9.30;40.66;99748.50;4938270;29;20424;-41
2021/11/09 10:55:54;;;;;;;8.07;1.02;;;;;;;9.46;39.77;99756.72;4946640;29;20435;-41
2021/11/09 10:59:18;;;;;;;4.60;1.08;;;;;;;9.32;40.20;99757.09;4933362;29;20137;-42
2021/11/09 11:06:28;;;;;;;5.15;1.10;;;;;;;10.09;39.15;99772.13;4933432;29;20043;-43
2021/11/09 11:09:01;;;;;;;5.93;1.40;;;;;;;9.72;39.40;99775.84;4933917;29;20050;-45
2021/11/09 11:11:30;;;;;;;3.75;0.90;;;;;;;9.77;38.23;99781.75;4933590;29;20071;-42
2021/11/09 11:14:10;;;;;;;2.13;0.70;;;;;;;9.70;38.55;99788.00;4915769;29;20047;-43
2021/11/09 11:16:46;;;;;;;3.35;1.08;;;;;;;9.06;39.64;99782.88;4932310;29;20101;-41
2021/11/09 11:19:14;;;;;;;5.97;1.27;;;;;;;9.02;39.30;99789.06;4950159;29;20050;-43
2021/11/09 11:21:41;;;;;;;1.70;0.90;;;;;;;8.62;39.57;99810.81;4935575;29;20043;-42
2021/11/09 11:24:09;;;;;;;1.80;0.77;;;;;;;8.25;39.87;99807.34;4934049;29;20561;-43
2021/11/09 11:26:36;;;;;;;3.50;1.03;;;;;;;7.76;40.51;99813.59;4935671;29;20051;-43
2021/11/09 11:29:02;;;;;;;4.03;0.90;;;;;;;7.82;40.36;99817.78;4915616;29;20054;-42
2021/11/09 11:31:28;;;;;;;7.00;1.00;;;;;;;7.60;40.84;99819.97;4937417;29;20514;-41
2021/11/09 11:33:54;;;;;;;5.85;1.17;;;;;;;7.55;40.90;99827.81;4934452;29;20192;-43
2021/11/09 11:36:20;;;;;;;5.50;1.33;;;;;;;7.42;41.05;99826.38;4950004;28;20099;-43
2021/11/09 11:38:50;;;;;;;3.53;0.80;;;;;;;7.50;41.01;99844.31;4930531;29;20499;-42
2021/11/09 11:41:16;;;;;;;2.80;1.23;;;;;;;7.22;41.61;99856.94;4934640;29;20106;-41
2021/11/09 11:43:42;;;;;;;2.75;1.02;;;;;;;7.80;40.92;99853.22;4945816;29;20380;-43
2021/11/09 11:46:37;;;;;;;2.40;0.73;;;;;;;8.22;40.27;99854.03;4934308;29;20081;-42
2021/11/09 11:49:09;;;;;;;3.90;1.25;;;;;;;7.86;40.38;99860.84;4922195;29;20516;-41
2021/11/09 11:51:56;;;;;;;1.83;0.80;;;;;;;7.56;40.77;99870.06;4930756;29;20056;-42
2021/11/09 11:54:53;;;;;;;8.20;1.00;;;;;;;7.38;41.10;99883.38;4924371;29;20110;-43
2021/11/09 11:57:26;;;;;;;3.70;1.08;;;;;;;7.53;40.91;99893.44;4937437;29;20043;-42
2021/11/09 11:59:53;;;;;;;3.28;0.80;;;;;;;7.52;40.79;99892.56;4930710;29;20039;-43
2021/11/09 12:02:39;;;;;;;4.68;1.00;;;;;;;7.13;41.25;99901.88;4900781;29;20140;-42
2021/11/09 12:05:07;;;;;;;6.75;1.00;;;;;;;6.71;41.70;99885.34;4943009;29;20097;-43
2021/11/09 12:07:53;;;;;;;2.10;0.80;;;;;;;6.27;42.35;99908.38;4946926;29;21885;-41
2021/11/09 12:10:20;;;;;;;7.68;2.92;;;;;;;6.32;43.00;99914.34;4931689;29;20039;-43
2021/11/09 12:13:02;;;;;;;4.35;1.05;;;;;;;6.16;43.41;99936.06;4929640;29;20121;-43
2021/11/09 12:15:43;;;;;;;2.80;1.00;;;;;;;5.83;43.50;99921.78;4949486;29;20042;-42
2021/11/09 12:18:32;;;;;;;11.63;1.42;;;;;;;5.58;44.94;99928.94;4944155;29;20069;-42
2021/11/09 12:21:02;;;;;;;2.50;0.88;;;;;;;5.45;44.86;99943.66;4933874;29;20459;-42
2021/11/09 12:23:30;;;;;;;4.82;1.08;;;;;;;5.16;45.60;99945.66;4931980;29;20035;-42
2021/11/09 12:25:56;;;;;;;3.70;0.95;;;;;;;4.83;46.24;99933.88;4916807;29;20142;-42
2021/11/09 12:28:34;;;;;;;8.52;1.00;;;;;;;4.72;46.57;99965.72;4915577;29;20044;-42
2021/11/09 12:31:00;;;;;;;2.47;0.98;;;;;;;4.59;46.86;99965.81;4931775;29;20118;-42
2021/11/09 12:33:31;;;;;;;5.20;1.10;;;;;;;4.44;47.67;99967.63;4915023;29;20130;-43
2021/11/09 12:36:03;;;;;;;2.92;0.82;;;;;;;4.32;47.67;99971.09;4913212;29;20050;-41
2021/11/09 12:38:33;;;;;;;5.40;0.98;;;;;;;4.23;48.58;99986.59;4931348;29;20043;-42
2021/11/09 12:41:00;;;;;;;;;;;;;;;4.17;48.57;99989.19;4914327;29;20424;-40
2021/11/09 12:43:31;;;;;;;3.17;0.90;;;;;;;3.99;49.30;99974.66;4932891;29;19923;-43
2021/11/09 12:46:09;;;;;;;3.22;0.93;;;;;;;4.00;49.01;99994.38;4911496;29;20039;-42
2021/11/09 12:48:37;;;;;;;2.67;0.98;;;;;;;3.90;49.74;99996.97;4916557;29;20055;-41
2021/11/09 12:51:06;;;;;;;8.52;1.30;;;;;;;3.78;50.36;100009.00;4917226;29;20047;-44
2021/11/09 12:53:39;;;;;;;2.63;0.77;;;;;;;3.65;50.53;100002.19;4921310;29;20444;-40
2021/11/09 12:56:33;;;;;;;7.25;1.30;;;;;;;3.55;51.08;100012.47;4924127;29;20044;-42
2021/11/09 12:59:07;;;;;;;3.72;0.98;;;;;;;3.50;51.53;100029.63;4929168;29;20043;-42
2021/11/09 13:01:43;;;;;;;4.75;1.23;;;;;;;3.42;51.87;100029.59;4928675;29;20147;-41
2021/11/09 13:09:19;;;;;;;4.05;1.13;;;;;;;3.14;52.26;100036.44;4933579;29;20052;-41
2021/11/09 13:11:54;;;;;;;9.95;1.50;;;;;;;3.08;53.15;100044.16;4917136;29;20657;-42
2021/11/09 13:14:21;;;;;;;4.80;1.00;;;;;;;3.03;53.14;100042.44;4927755;29;20050;-42
2021/11/09 13:16:50;;;;;;;3.38;1.30;;;;;;;3.00;53.38;100040.69;4915686;29;20051;-46
2021/11/09 13:19:23;;;;;;;6.43;1.38;;;;;;;2.95;53.80;100058.66;4899275;29;20488;-41
2021/11/09 13:22:09;;;;;;;3.50;1.08;;;;;;;2.70;53.85;100020.97;4926677;29;20065;-41
2021/11/09 13:24:38;;;;;;;4.25;1.10;;;;;;;2.76;53.92;100059.47;4929734;29;20044;-43
2021/11/09 13:27:07;;;;;;;3.28;1.17;;;;;;;2.69;53.99;100068.00;4937284;29;20138;-43
2021/11/09 13:29:45;;;;;;;4.10;1.10;;;;;;;2.62;54.15;100065.44;4928840;29;20044;-40
2021/11/09 13:32:12;;;;;;;4.93;1.05;;;;;;;2.57;54.43;100070.53;4916963;29;20425;-40
2021/11/09 13:34:39;;;;;;;4.22;1.33;;;;;;;2.54;54.78;100081.66;4948614;29;20138;-41
2021/11/09 13:37:05;;;;;;;4.00;1.20;;;;;;;2.46;54.99;100080.75;4944671;29;20091;-42
2021/11/09 13:39:31;;;;;;;8.30;1.10;;;;;;;2.39;55.29;100080.72;4918250;29;20046;-44
2021/11/09 13:41:57;;;;;;;1.67;0.90;;;;;;;2.30;55.53;100089.25;4938530;29;20043;-40
2021/11/09 13:44:23;;;;;;;4.63;1.13;;;;;;;2.24;55.59;100099.47;4916477;29;20118;-41
2021/11/09 13:46:50;;;;;;;4.97;1.50;;;;;;;2.16;55.73;100115.63;4923952;29;20047;-42
2021/11/09 13:49:18;;;;;;;2.63;0.95;;;;;;;2.08;55.94;100111.34;4921693;29;20083;-43
2021/11/09 13:51:59;;;;;;;5.90;1.23;;;;;;;1.94;55.88;100123.19;4943170;29;20097;-41
2021/11/09 13:54:40;;;;;;;3.83;0.90;;;;;;;1.81;56.26;100123.94;4918221;29;20051;-43
2021/11/09 13:57:08;;;;;;;5.22;0.90;;;;;;;1.67;56.47;100135.81;4916100;29;20058;-41
2021/11/09 13:59:35;;;;;;;2.83;1.40;;;;;;;1.46;56.75;100115.13;4945314;28;20040;-41
2021/11/09 14:02:20;;;;;;;5.38;1.20;;;;;;;1.48;57.04;100144.13;4946084;29;20071;-41
2021/11/09 14:05:01;;;;;;;4.95;0.80;;;;;;;1.40;57.46;100141.53;4936422;29;20047;-41
2021/11/09 14:18:22;;;;;;;3.28;1.00;;;;;;;1.44;57.92;100168.88;4946744;29;20039;-40
2021/11/09 14:20:52;;;;;;;8.18;1.25;;;;;;;1.47;58.08;100176.59;4934648;29;20038;-42